Time;durP1;ratioP1;P1;durP2;ratioP2;P2;SDS_P1;SDS_P2;PMS_P1;PMS_P2;Temp;Humidity;BMP_temperature;BMP_pressure;BME280_temperature;BME280_humidity;BME280_pressure;Samples;Min_cycle;Max_cycle;Signal;HPM_P1;HPM_P2
2021/12/02 00:00:14;;;;;;;7.97;1.90;;;;;;;;;;5066804;28;20287;-59
2021/12/02 00:02:39;;;;;;;12.07;1.80;;;;;;;;;;5061404;28;20218;-59
2021/12/02 00:05:05;;;;;;;8.30;1.70;;;;;;;;;;5059088;28;20206;-60
2021/12/02 00:07:30;;;;;;;12.60;1.83;;;;;;;;;;5058530;28;20215;-59
2021/12/02 00:09:55;;;;;;;10.73;1.80;;;;;;;;;;5065797;28;20561;-60
2021/12/02 00:12:21;;;;;;;14.63;1.87;;;;;;;;;;5067408;28;20211;-60
2021/12/02 00:14:48;;;;;;;10.33;1.43;;;;;;;;;;5066536;28;20218;-59
2021/12/02 00:17:17;;;;;;;14.80;2.10;;;;;;;;;;5067122;28;20207;-59
2021/12/02 00:22:27;;;;;;;10.60;1.83;;;;;;;;;;5066031;28;20733;-59
2021/12/02 00:24:54;;;;;;;7.90;1.40;;;;;;;;;;5062333;28;20210;-59
2021/12/02 00:27:19;;;;;;;13.93;2.03;;;;;;;;;;5058559;28;20420;-60
2021/12/02 00:29:45;;;;;;;10.30;1.70;;;;;;;;;;5058505;28;21063;-59
2021/12/02 00:32:10;;;;;;;9.53;1.60;;;;;;;;;;5063681;28;20244;-60
2021/12/02 00:34:36;;;;;;;9.70;1.40;;;;;;;;;;5067211;28;20266;-60
2021/12/02 00:37:01;;;;;;;10.13;1.60;;;;;;;;;;5048048;28;20206;-60
2021/12/02 00:39:27;;;;;;;10.37;1.70;;;;;;;;;;5067066;28;20219;-59
2021/12/02 00:41:52;;;;;;;9.07;1.60;;;;;;;;;;5066693;28;20253;-60
2021/12/02 00:44:18;;;;;;;8.43;1.50;;;;;;;;;;5048370;28;20218;-60
2021/12/02 00:46:44;;;;;;;11.93;2.07;;;;;;;;;;5063741;28;20537;-60
2021/12/02 00:49:12;;;;;;;9.83;1.90;;;;;;;;;;5057398;28;20214;-60
2021/12/02 00:51:37;;;;;;;12.20;1.60;;;;;;;;;;5058444;28;20209;-60
2021/12/02 00:54:03;;;;;;;8.97;1.50;;;;;;;;;;5061888;28;20203;-60
2021/12/02 00:56:29;;;;;;;5.50;1.07;;;;;;;;;;5066035;28;20294;-60
2021/12/02 00:58:54;;;;;;;7.13;1.30;;;;;;;;;;5066764;28;20293;-60
2021/12/02 01:01:20;;;;;;;9.27;1.20;;;;;;;;;;5066346;28;20235;-60
2021/12/02 01:03:47;;;;;;;5.53;1.00;;;;;;;;;;5065783;28;20228;-60
2021/12/02 01:06:12;;;;;;;11.00;1.23;;;;;;;;;;5066378;28;20202;-60
2021/12/02 01:08:37;;;;;;;4.20;0.97;;;;;;;;;;5065104;28;20267;-60
2021/12/02 01:11:03;;;;;;;5.97;1.10;;;;;;;;;;5058004;28;20216;-60
2021/12/02 01:13:28;;;;;;;8.93;1.00;;;;;;;;;;5058384;28;20213;-60
2021/12/02 01:15:54;;;;;;;6.43;1.00;;;;;;;;;;5059503;28;20249;-60
2021/12/02 01:18:19;;;;;;;5.50;0.83;;;;;;;;;;5064500;28;21031;-59
2021/12/02 01:20:46;;;;;;;5.20;0.87;;;;;;;;;;5066417;28;20590;-60
2021/12/02 01:23:11;;;;;;;3.53;0.70;;;;;;;;;;5066083;28;20206;-59
2021/12/02 01:25:37;;;;;;;3.00;0.53;;;;;;;;;;5047839;28;20206;-60
2021/12/02 01:28:02;;;;;;;2.63;0.50;;;;;;;;;;5048180;28;20217;-60
2021/12/02 01:30:27;;;;;;;2.87;0.70;;;;;;;;;;5066145;28;20217;-60
2021/12/02 01:32:56;;;;;;;2.47;0.97;;;;;;;;;;5058897;28;20203;-59
2021/12/02 01:35:21;;;;;;;2.13;0.70;;;;;;;;;;5039170;28;20251;-60
2021/12/02 01:37:46;;;;;;;1.77;0.50;;;;;;;;;;5039671;28;20615;-59
2021/12/02 01:40:12;;;;;;;3.13;0.50;;;;;;;;;;5063958;28;20217;-60
2021/12/02 01:42:38;;;;;;;4.00;0.70;;;;;;;;;;5066078;28;20233;-59
2021/12/02 01:45:04;;;;;;;2.33;0.60;;;;;;;;;;5065186;28;20299;-60
2021/12/02 01:47:31;;;;;;;5.17;0.47;;;;;;;;;;5065343;28;20271;-59
2021/12/02 01:49:58;;;;;;;3.70;0.63;;;;;;;;;;5048050;28;20207;-59
2021/12/02 01:52:26;;;;;;;3.17;0.80;;;;;;;;;;5064746;28;20367;-60
2021/12/02 01:54:51;;;;;;;4.03;0.60;;;;;;;;;;5042923;28;20838;-60
2021/12/02 01:57:26;;;;;;;1.83;0.50;;;;;;;;;;5056791;28;20230;-60
2021/12/02 01:59:51;;;;;;;2.50;0.60;;;;;;;;;;5038971;28;20206;-60
2021/12/02 02:02:17;;;;;;;5.23;1.20;;;;;;;;;;5062258;28;20230;-59
2021/12/02 02:04:42;;;;;;;2.80;0.70;;;;;;;;;;5047798;28;20256;-60
2021/12/02 02:07:14;;;;;;;3.13;0.60;;;;;;;;;;5046372;28;20214;-60
2021/12/02 02:09:39;;;;;;;3.33;0.80;;;;;;;;;;5065274;28;20214;-60
2021/12/02 02:12:06;;;;;;;2.17;0.70;;;;;;;;;;5064929;28;20693;-60
2021/12/02 02:14:31;;;;;;;3.73;0.80;;;;;;;;;;5064816;28;20213;-60
2021/12/02 02:16:58;;;;;;;4.03;0.90;;;;;;;;;;5061393;28;20218;-60
2021/12/02 02:19:28;;;;;;;2.50;0.80;;;;;;;;;;5056763;28;20214;-60
2021/12/02 02:21:54;;;;;;;4.60;0.90;;;;;;;;;;5055969;28;20673;-60
2021/12/02 02:24:20;;;;;;;3.47;0.70;;;;;;;;;;5042564;28;20224;-60
2021/12/02 02:26:45;;;;;;;4.67;1.23;;;;;;;;;;5065410;28;20219;-60
2021/12/02 02:29:11;;;;;;;5.00;1.30;;;;;;;;;;5063909;28;20221;-59
2021/12/02 02:31:37;;;;;;;4.70;1.20;;;;;;;;;;5047078;28;20619;-60
2021/12/02 02:34:02;;;;;;;8.27;1.50;;;;;;;;;;5064734;28;20210;-60
2021/12/02 02:36:30;;;;;;;6.00;1.33;;;;;;;;;;5063886;28;20213;-59
2021/12/02 02:38:57;;;;;;;6.97;1.30;;;;;;;;;;5062383;28;20275;-60
2021/12/02 02:41:23;;;;;;;6.20;1.30;;;;;;;;;;5038000;28;20578;-60
2021/12/02 02:43:49;;;;;;;5.70;1.20;;;;;;;;;;5056591;28;20602;-59
2021/12/02 02:46:24;;;;;;;6.90;1.30;;;;;;;;;;5040552;28;20549;-60
2021/12/02 02:48:50;;;;;;;3.38;1.05;;;;;;;;;;5063702;28;20265;-60
2021/12/02 02:51:15;;;;;;;5.27;1.30;;;;;;;;;;5064385;28;20248;-60
2021/12/02 02:53:40;;;;;;;5.97;1.07;;;;;;;;;;5064696;28;20670;-60
2021/12/02 02:56:09;;;;;;;2.97;0.80;;;;;;;;;;5063129;28;20296;-60
2021/12/02 03:01:13;;;;;;;4.53;1.03;;;;;;;;;;5063441;28;20870;-60
2021/12/02 03:03:46;;;;;;;3.47;0.97;;;;;;;;;;5039682;28;20214;-59
2021/12/02 03:08:51;;;;;;;6.30;1.40;;;;;;;;;;5042114;28;20245;-60
2021/12/02 03:11:18;;;;;;;5.43;1.20;;;;;;;;;;5046024;28;20256;-60
2021/12/02 03:13:51;;;;;;;9.07;1.50;;;;;;;;;;5063890;28;20678;-60
2021/12/02 03:19:01;;;;;;;4.47;1.20;;;;;;;;;;5064072;28;20217;-60
2021/12/02 03:21:28;;;;;;;4.43;0.97;;;;;;;;;;5064063;28;20207;-60
2021/12/02 03:23:54;;;;;;;3.60;1.10;;;;;;;;;;5061560;28;20221;-59
2021/12/02 03:26:19;;;;;;;4.03;1.00;;;;;;;;;;5055762;28;20232;-59
2021/12/02 03:28:46;;;;;;;6.10;0.90;;;;;;;;;;5056078;28;20667;-60
2021/12/02 03:31:12;;;;;;;5.13;1.40;;;;;;;;;;5057963;28;20222;-59
2021/12/02 03:33:37;;;;;;;4.57;1.10;;;;;;;;;;5064113;28;20212;-60
2021/12/02 03:36:02;;;;;;;5.90;1.00;;;;;;;;;;5063985;28;20217;-59
2021/12/02 03:38:28;;;;;;;4.40;0.97;;;;;;;;;;5063570;28;20210;-59
2021/12/02 03:40:53;;;;;;;5.13;0.90;;;;;;;;;;5064203;28;20313;-60
2021/12/02 03:43:18;;;;;;;3.23;0.93;;;;;;;;;;5063587;28;20215;-60
2021/12/02 03:45:43;;;;;;;4.37;0.80;;;;;;;;;;5063466;28;20260;-59
2021/12/02 03:48:09;;;;;;;5.60;0.77;;;;;;;;;;5055577;28;20222;-60
2021/12/02 03:50:34;;;;;;;4.93;0.70;;;;;;;;;;5055962;28;20207;-60
2021/12/02 03:52:59;;;;;;;4.37;0.73;;;;;;;;;;5055255;28;20615;-59
2021/12/02 03:55:24;;;;;;;4.97;0.80;;;;;;;;;;5063636;28;20226;-59
2021/12/02 03:57:50;;;;;;;2.53;0.80;;;;;;;;;;5064065;28;20264;-59
2021/12/02 04:00:15;;;;;;;3.67;0.80;;;;;;;;;;5063101;28;20321;-60
2021/12/02 04:02:41;;;;;;;3.57;0.70;;;;;;;;;;5046250;28;20326;-59
2021/12/02 04:05:06;;;;;;;7.73;0.60;;;;;;;;;;5063495;28;20220;-60
2021/12/02 04:07:31;;;;;;;3.03;0.47;;;;;;;;;;5063298;28;20214;-59
2021/12/02 04:09:58;;;;;;;2.03;0.60;;;;;;;;;;5057801;28;20211;-60
2021/12/02 04:17:29;;;;;;;4.07;0.57;;;;;;;;;;5061827;28;20744;-60
2021/12/02 04:19:54;;;;;;;1.77;0.50;;;;;;;;;;5063259;28;20236;-59
2021/12/02 04:22:19;;;;;;;2.37;0.40;;;;;;;;;;5062932;28;20705;-60
2021/12/02 04:24:44;;;;;;;4.23;0.50;;;;;;;;;;5065328;28;20202;-59
2021/12/02 04:27:10;;;;;;;5.37;0.50;;;;;;;;;;5066010;28;21029;-60
2021/12/02 04:29:35;;;;;;;4.30;0.60;;;;;;;;;;5067482;28;20300;-59
2021/12/02 04:32:00;;;;;;;2.20;0.40;;;;;;;;;;5062434;28;20724;-60
2021/12/02 04:34:25;;;;;;;2.00;0.30;;;;;;;;;;5056650;28;20293;-60
2021/12/02 04:36:51;;;;;;;3.20;0.53;;;;;;;;;;5059410;28;20806;-59
2021/12/02 04:39:16;;;;;;;2.30;0.40;;;;;;;;;;5063014;28;20229;-59
2021/12/02 04:41:42;;;;;;;2.53;0.40;;;;;;;;;;5066607;28;20966;-59
2021/12/02 04:44:07;;;;;;;4.00;0.57;;;;;;;;;;5066594;28;20248;-59
2021/12/02 04:46:33;;;;;;;2.13;0.50;;;;;;;;;;5066727;28;20712;-59
2021/12/02 04:48:59;;;;;;;2.57;0.50;;;;;;;;;;5066271;28;20248;-59
2021/12/02 04:51:24;;;;;;;2.63;0.43;;;;;;;;;;5066651;28;20229;-59
2021/12/02 04:53:49;;;;;;;4.80;1.10;;;;;;;;;;5064296;28;20221;-59
2021/12/02 04:56:14;;;;;;;3.53;0.50;;;;;;;;;;5057855;28;21137;-59
2021/12/02 04:58:40;;;;;;;2.70;0.40;;;;;;;;;;5058529;28;20225;-59
2021/12/02 05:01:05;;;;;;;2.50;0.43;;;;;;;;;;5060296;28;20366;-59
2021/12/02 05:03:30;;;;;;;2.00;0.40;;;;;;;;;;5065379;28;20221;-59
2021/12/02 05:05:56;;;;;;;2.97;0.50;;;;;;;;;;5066213;28;20217;-59
2021/12/02 05:08:21;;;;;;;2.47;0.50;;;;;;;;;;5065896;28;20203;-59
2021/12/02 05:10:47;;;;;;;4.00;0.50;;;;;;;;;;5065266;28;20203;-60
2021/12/02 05:13:12;;;;;;;3.53;0.50;;;;;;;;;;5065811;28;20228;-60
2021/12/02 05:15:37;;;;;;;6.03;0.60;;;;;;;;;;5065672;28;20221;-59
2021/12/02 05:18:03;;;;;;;4.20;0.67;;;;;;;;;;5057510;28;20302;-60
2021/12/02 05:20:28;;;;;;;3.47;0.57;;;;;;;;;;5057428;28;20205;-60
2021/12/02 05:22:53;;;;;;;3.00;0.40;;;;;;;;;;5057925;28;20806;-59
2021/12/02 05:25:18;;;;;;;3.40;0.50;;;;;;;;;;5064221;28;20744;-60
2021/12/02 05:27:44;;;;;;;4.60;0.60;;;;;;;;;;5066002;28;20221;-59
2021/12/02 05:30:09;;;;;;;1.93;0.50;;;;;;;;;;5064636;28;20251;-59
2021/12/02 05:32:34;;;;;;;3.73;0.40;;;;;;;;;;5066097;28;20236;-59
2021/12/02 05:35:00;;;;;;;5.47;0.60;;;;;;;;;;5065671;28;20214;-59
2021/12/02 05:37:25;;;;;;;3.37;0.50;;;;;;;;;;5063887;28;20206;-59
2021/12/02 05:39:51;;;;;;;3.70;0.50;;;;;;;;;;5059864;28;20266;-59
2021/12/02 05:42:16;;;;;;;1.37;0.47;;;;;;;;;;5056562;28;20226;-59
2021/12/02 05:44:43;;;;;;;4.83;0.80;;;;;;;;;;5056507;28;20806;-59
2021/12/02 05:47:08;;;;;;;1.80;0.50;;;;;;;;;;5062575;28;20274;-60
2021/12/02 05:49:34;;;;;;;3.03;0.60;;;;;;;;;;5066037;28;20682;-60
2021/12/02 05:51:59;;;;;;;3.23;0.70;;;;;;;;;;5064662;28;20203;-59
2021/12/02 05:54:24;;;;;;;1.63;0.50;;;;;;;;;;5065158;28;20358;-60
2021/12/02 05:56:49;;;;;;;2.83;0.60;;;;;;;;;;5065170;28;20213;-60
2021/12/02 05:59:15;;;;;;;2.40;0.40;;;;;;;;;;5064242;28;20260;-60
2021/12/02 06:01:42;;;;;;;3.13;0.50;;;;;;;;;;5043294;28;20677;-60
2021/12/02 06:04:09;;;;;;;2.30;0.60;;;;;;;;;;5056451;28;20218;-60
2021/12/02 06:06:34;;;;;;;2.63;0.40;;;;;;;;;;5054601;28;20199;-60
2021/12/02 06:08:59;;;;;;;1.30;0.30;;;;;;;;;;5060982;28;20225;-60
2021/12/02 06:11:25;;;;;;;0.67;0.30;;;;;;;;;;5064514;28;21233;-60
2021/12/02 06:13:50;;;;;;;2.43;0.40;;;;;;;;;;5063964;28;20213;-60
2021/12/02 06:16:15;;;;;;;2.40;0.40;;;;;;;;;;5064610;28;20554;-60
2021/12/02 06:18:41;;;;;;;2.30;0.53;;;;;;;;;;5064016;28;20363;-60
2021/12/02 06:21:06;;;;;;;1.90;0.33;;;;;;;;;;5062747;28;20215;-60
2021/12/02 06:23:31;;;;;;;3.47;0.50;;;;;;;;;;5062472;28;21160;-60
2021/12/02 06:25:56;;;;;;;3.53;0.50;;;;;;;;;;5056754;28;20206;-59
2021/12/02 06:28:22;;;;;;;2.03;0.40;;;;;;;;;;5055125;28;20210;-59
2021/12/02 06:30:47;;;;;;;2.07;0.40;;;;;;;;;;5062280;28;20421;-59
2021/12/02 06:33:14;;;;;;;2.53;0.40;;;;;;;;;;5055657;28;20213;-59
2021/12/02 06:35:40;;;;;;;2.97;0.67;;;;;;;;;;5045817;28;20210;-59
2021/12/02 06:38:05;;;;;;;4.37;0.63;;;;;;;;;;5053750;28;20708;-58
2021/12/02 06:40:31;;;;;;;2.77;0.90;;;;;;;;;;5071917;28;20206;-59
2021/12/02 06:42:56;;;;;;;4.33;0.70;;;;;;;;;;5066166;28;20273;-60
2021/12/02 06:45:22;;;;;;;4.83;1.00;;;;;;;;;;5059931;28;20211;-59
2021/12/02 06:47:47;;;;;;;5.23;1.00;;;;;;;;;;5051374;28;20983;-60
2021/12/02 06:50:16;;;;;;;4.90;1.00;;;;;;;;;;5052450;28;20251;-60
2021/12/02 06:52:41;;;;;;;6.47;0.90;;;;;;;;;;5052363;28;20243;-58
2021/12/02 06:55:07;;;;;;;3.33;1.00;;;;;;;;;;5051050;28;20470;-59
2021/12/02 06:57:32;;;;;;;3.03;0.93;;;;;;;;;;5052215;28;20308;-58
2021/12/02 07:00:03;;;;;;;3.77;1.00;;;;;;;;;;5052204;28;20211;-58
2021/12/02 07:02:30;;;;;;;5.57;1.40;;;;;;;;;;5043205;28;20298;-58
2021/12/02 07:04:57;;;;;;;3.50;1.00;;;;;;;;;;5052306;28;20203;-58
2021/12/02 07:07:22;;;;;;;2.73;1.30;;;;;;;;;;5034226;28;20280;-58
2021/12/02 07:09:48;;;;;;;4.00;1.50;;;;;;;;;;5051619;28;20614;-58
2021/12/02 07:12:13;;;;;;;3.13;1.10;;;;;;;;;;5061039;28;20630;-58
2021/12/02 07:14:38;;;;;;;3.87;1.10;;;;;;;;;;5053073;28;20234;-58
2021/12/02 07:17:04;;;;;;;5.87;1.30;;;;;;;;;;5050906;28;20235;-58
2021/12/02 07:19:29;;;;;;;5.43;1.33;;;;;;;;;;5056468;28;20569;-59
2021/12/02 07:21:54;;;;;;;4.93;1.00;;;;;;;;;;5062327;28;20218;-58
2021/12/02 07:24:21;;;;;;;3.47;0.97;;;;;;;;;;5069010;28;20233;-59
2021/12/02 07:26:46;;;;;;;3.70;1.20;;;;;;;;;;5072110;28;20304;-59
2021/12/02 07:29:13;;;;;;;5.03;1.37;;;;;;;;;;5071401;28;20366;-59
2021/12/02 07:31:39;;;;;;;3.43;1.57;;;;;;;;;;5071414;28;20210;-59
2021/12/02 07:34:04;;;;;;;5.80;3.20;;;;;;;;;;5071710;28;20676;-58
2021/12/02 07:36:30;;;;;;;19.53;8.40;;;;;;;;;;5060275;28;20222;-59
2021/12/02 07:38:55;;;;;;;7.67;3.53;;;;;;;;;;5055184;28;20206;-59
2021/12/02 07:41:20;;;;;;;6.27;2.23;;;;;;;;;;5068932;28;20232;-60
2021/12/02 07:43:46;;;;;;;15.70;8.53;;;;;;;;;;5057170;28;20203;-60
2021/12/02 07:46:11;;;;;;;4.50;1.80;;;;;;;;;;5051308;28;20662;-60
2021/12/02 07:48:36;;;;;;;4.37;1.90;;;;;;;;;;5051618;28;20226;-59
2021/12/02 07:51:03;;;;;;;7.70;4.50;;;;;;;;;;5050712;28;20302;-60
2021/12/02 07:53:28;;;;;;;13.77;8.10;;;;;;;;;;5047994;28;20218;-60
2021/12/02 07:55:55;;;;;;;16.97;7.07;;;;;;;;;;5052104;28;20223;-59
2021/12/02 07:58:21;;;;;;;15.50;9.37;;;;;;;;;;5053862;28;20306;-60
2021/12/02 08:00:46;;;;;;;5.93;3.30;;;;;;;;;;5046014;28;20294;-58
2021/12/02 08:03:11;;;;;;;8.93;4.57;;;;;;;;;;5055165;28;20211;-58
2021/12/02 08:05:37;;;;;;;5.70;3.10;;;;;;;;;;5053729;28;20218;-59
2021/12/02 08:08:02;;;;;;;6.80;3.93;;;;;;;;;;5074505;28;20224;-59
2021/12/02 08:10:29;;;;;;;8.53;3.83;;;;;;;;;;5056610;28;20642;-58
2021/12/02 08:12:54;;;;;;;5.47;3.87;;;;;;;;;;5074546;28;20218;-60
2021/12/02 08:15:20;;;;;;;8.67;4.40;;;;;;;;;;5059953;28;20211;-59
2021/12/02 08:17:45;;;;;;;6.17;3.63;;;;;;;;;;5037607;28;20207;-59
2021/12/02 08:20:11;;;;;;;6.80;2.43;;;;;;;;;;5054398;28;20219;-59
2021/12/02 08:22:36;;;;;;;6.10;2.80;;;;;;;;;;5053866;28;20227;-59
2021/12/02 08:25:02;;;;;;;7.77;3.40;;;;;;;;;;5054844;28;20337;-59
2021/12/02 08:27:27;;;;;;;5.53;2.80;;;;;;;;;;5054147;28;20211;-59
2021/12/02 08:29:52;;;;;;;7.80;3.73;;;;;;;;;;5055210;28;20226;-59
2021/12/02 08:32:18;;;;;;;6.17;3.70;;;;;;;;;;5054697;28;20218;-60
2021/12/02 08:34:43;;;;;;;9.90;3.73;;;;;;;;;;5054380;28;20200;-60
2021/12/02 08:37:10;;;;;;;5.83;2.30;;;;;;;;;;5054407;28;20276;-60
2021/12/02 08:39:35;;;;;;;3.57;2.07;;;;;;;;;;5054026;28;20265;-60
2021/12/02 08:42:02;;;;;;;5.00;2.10;;;;;;;;;;5062094;28;20270;-61
2021/12/02 08:44:30;;;;;;;6.40;2.27;;;;;;;;;;5074800;28;20218;-61
2021/12/02 08:46:56;;;;;;;4.23;1.60;;;;;;;;;;5071386;28;20214;-62
2021/12/02 08:49:21;;;;;;;3.43;2.43;;;;;;;;;;5035411;28;20207;-63
2021/12/02 08:51:47;;;;;;;6.87;1.23;;;;;;;;;;5037265;28;20294;-63
2021/12/02 08:54:12;;;;;;;4.67;1.33;;;;;;;;;;5056828;28;20230;-63
2021/12/02 08:56:38;;;;;;;3.33;1.40;;;;;;;;;;5061619;28;20238;-62
2021/12/02 08:59:03;;;;;;;3.27;1.00;;;;;;;;;;5068002;28;20206;-62
2021/12/02 09:01:29;;;;;;;2.60;1.00;;;;;;;;;;5073863;28;20222;-62
2021/12/02 09:03:55;;;;;;;4.53;1.43;;;;;;;;;;5074355;28;20202;-62
2021/12/02 09:06:22;;;;;;;4.83;1.60;;;;;;;;;;5070357;28;20226;-61
2021/12/02 09:08:48;;;;;;;3.10;1.50;;;;;;;;;;5063883;28;20214;-61
2021/12/02 09:11:13;;;;;;;2.87;1.60;;;;;;;;;;5052569;28;20210;-68
2021/12/02 09:13:38;;;;;;;3.27;1.33;;;;;;;;;;5054189;28;20237;-69
2021/12/02 09:16:03;;;;;;;2.70;1.10;;;;;;;;;;5035101;28;20218;-66
2021/12/02 09:18:29;;;;;;;4.73;1.73;;;;;;;;;;5054020;28;20667;-68
2021/12/02 09:20:54;;;;;;;4.63;1.27;;;;;;;;;;5056423;28;20222;-59
2021/12/02 09:23:19;;;;;;;3.97;1.40;;;;;;;;;;5061246;28;20222;-60
2021/12/02 09:25:45;;;;;;;4.17;1.90;;;;;;;;;;5054044;28;20280;-59
2021/12/02 09:28:10;;;;;;;6.03;1.90;;;;;;;;;;5053039;28;20589;-60
2021/12/02 09:30:36;;;;;;;4.50;1.53;;;;;;;;;;5053117;28;20211;-59
2021/12/02 09:33:01;;;;;;;4.33;2.13;;;;;;;;;;5053419;28;20588;-60
2021/12/02 09:35:26;;;;;;;4.60;1.53;;;;;;;;;;5053604;28;20288;-60
2021/12/02 09:37:51;;;;;;;5.73;1.43;;;;;;;;;;5058917;28;20588;-60
2021/12/02 09:40:17;;;;;;;4.10;1.50;;;;;;;;;;5064949;28;20250;-60
2021/12/02 09:42:42;;;;;;;4.60;1.50;;;;;;;;;;5053038;28;20289;-60
2021/12/02 09:45:08;;;;;;;3.93;1.50;;;;;;;;;;5034440;28;20623;-60
2021/12/02 09:47:34;;;;;;;4.87;1.60;;;;;;;;;;5053299;28;20340;-60
2021/12/02 09:50:04;;;;;;;2.93;1.50;;;;;;;;;;5053556;28;20226;-60
2021/12/02 09:52:34;;;;;;;4.40;1.30;;;;;;;;;;5035163;28;20218;-60
2021/12/02 09:55:06;;;;;;;4.23;1.30;;;;;;;;;;5052505;28;20265;-60
2021/12/02 09:57:34;;;;;;;4.23;1.47;;;;;;;;;;5052397;28;20211;-60
2021/12/02 10:00:00;;;;;;;3.20;1.53;;;;;;;;;;5053337;28;20257;-60
2021/12/02 10:02:25;;;;;;;6.00;1.30;;;;;;;;;;5054224;28;20693;-60
2021/12/02 10:04:56;;;;;;;3.70;1.40;;;;;;;;;;5051784;28;20458;-60
2021/12/02 10:07:30;;;;;;;4.23;1.30;;;;;;;;;;5052330;28;20565;-60
2021/12/02 10:10:08;;;;;;;3.60;1.27;;;;;;;;;;5053012;28;20252;-59
2021/12/02 10:12:36;;;;;;;2.50;1.30;;;;;;;;;;5051962;28;20282;-59
2021/12/02 10:15:06;;;;;;;6.20;1.37;;;;;;;;;;5064879;28;20210;-62
2021/12/02 10:17:34;;;;;;;4.70;1.30;;;;;;;;;;5072765;28;20209;-59
2021/12/02 10:20:10;;;;;;;3.23;1.20;;;;;;;;;;5071748;28;20214;-58
2021/12/02 10:22:35;;;;;;;4.13;1.00;;;;;;;;;;5056127;28;20229;-59
2021/12/02 10:25:00;;;;;;;3.30;0.90;;;;;;;;;;5052453;28;20211;-60
2021/12/02 10:27:26;;;;;;;2.97;0.83;;;;;;;;;;5034196;28;20207;-59
2021/12/02 10:29:51;;;;;;;2.83;0.80;;;;;;;;;;5052555;28;20209;-58
2021/12/02 10:32:19;;;;;;;3.23;1.00;;;;;;;;;;5052082;28;20222;-59
2021/12/02 10:34:46;;;;;;;2.33;0.80;;;;;;;;;;5034040;28;20211;-58
2021/12/02 10:37:11;;;;;;;3.70;1.03;;;;;;;;;;5051804;28;20215;-59
2021/12/02 10:39:36;;;;;;;2.47;1.00;;;;;;;;;;5051889;28;20207;-59
2021/12/02 10:42:04;;;;;;;1.97;0.80;;;;;;;;;;5033977;28;20223;-59
2021/12/02 10:44:34;;;;;;;1.20;0.80;;;;;;;;;;5052484;28;20218;-59
2021/12/02 10:47:01;;;;;;;2.63;1.07;;;;;;;;;;5052874;28;20280;-59
2021/12/02 10:49:28;;;;;;;8.57;5.17;;;;;;;;;;5071842;28;20210;-59
2021/12/02 10:51:54;;;;;;;5.40;2.47;;;;;;;;;;5072001;28;20253;-59
2021/12/02 10:54:20;;;;;;;3.97;1.83;;;;;;;;;;5071053;28;20202;-60
2021/12/02 10:56:48;;;;;;;4.00;1.00;;;;;;;;;;5054121;28;20255;-59
2021/12/02 10:59:26;;;;;;;2.43;1.00;;;;;;;;;;5071561;28;20206;-60
2021/12/02 11:01:52;;;;;;;5.93;1.77;;;;;;;;;;5071169;28;20222;-59
2021/12/02 11:04:17;;;;;;;2.93;0.70;;;;;;;;;;5071853;28;20214;-59
2021/12/02 11:06:43;;;;;;;3.80;0.80;;;;;;;;;;5054068;28;20252;-59
2021/12/02 11:09:24;;;;;;;2.60;1.17;;;;;;;;;;5070524;28;20241;-60
2021/12/02 11:12:08;;;;;;;2.50;0.63;;;;;;;;;;5054182;28;20207;-59
2021/12/02 11:14:34;;;;;;;3.13;1.20;;;;;;;;;;5063015;28;20214;-59
2021/12/02 11:17:07;;;;;;;6.83;1.70;;;;;;;;;;5050918;28;20617;-59
2021/12/02 11:19:34;;;;;;;3.63;1.73;;;;;;;;;;5050700;28;20294;-59
2021/12/02 11:22:04;;;;;;;2.07;1.00;;;;;;;;;;5061207;28;20219;-59
2021/12/02 11:24:30;;;;;;;4.37;1.70;;;;;;;;;;5071463;28;20233;-60
2021/12/02 11:27:06;;;;;;;2.40;0.60;;;;;;;;;;5071933;28;20596;-59
2021/12/02 11:29:49;;;;;;;3.10;0.40;;;;;;;;;;5071028;28;20197;-59
2021/12/02 11:32:23;;;;;;;2.30;0.80;;;;;;;;;;5071264;28;20233;-60
2021/12/02 11:34:49;;;;;;;2.97;0.53;;;;;;;;;;5073368;28;20296;-59
2021/12/02 11:37:14;;;;;;;2.50;0.60;;;;;;;;;;5072862;28;20209;-59
2021/12/02 11:39:41;;;;;;;2.47;0.67;;;;;;;;;;5075848;28;20206;-59
2021/12/02 11:42:06;;;;;;;3.03;1.80;;;;;;;;;;5049205;28;20234;-59
2021/12/02 11:44:32;;;;;;;5.37;2.60;;;;;;;;;;5067536;28;20295;-60
2021/12/02 11:46:58;;;;;;;3.05;1.10;;;;;;;;;;5052734;28;20427;-60
2021/12/02 11:49:23;;;;;;;4.15;2.58;;;;;;;;;;5037241;28;20210;-59
2021/12/02 11:51:48;;;;;;;2.88;1.60;;;;;;;;;;5036571;28;20677;-60
2021/12/02 11:54:13;;;;;;;2.20;1.20;;;;;;;;;;5060741;28;20207;-60
2021/12/02 11:56:39;;;;;;;4.25;0.88;;;;;;;;;;5064284;28;20293;-59
2021/12/02 11:59:04;;;;;;;3.67;0.90;;;;;;;;;;5053474;28;20412;-60
2021/12/02 12:01:29;;;;;;;1.10;0.90;;;;;;;;;;5052726;28;20456;-59
2021/12/02 12:04:00;;;;;;;1.53;0.70;;;;;;;;;;5065286;28;20210;-59
2021/12/02 12:06:28;;;;;;;2.78;1.25;;;;;;;;;;5066722;28;20215;-60
2021/12/02 12:08:55;;;;;;;2.13;0.70;;;;;;;;;;5064333;28;20690;-59
2021/12/02 12:11:26;;;;;;;1.27;0.60;;;;;;;;;;5054317;28;20269;-59
2021/12/02 12:13:51;;;;;;;0.88;0.52;;;;;;;;;;5055484;28;20697;-59
2021/12/02 12:16:22;;;;;;;2.05;0.60;;;;;;;;;;5055063;28;20211;-59
2021/12/02 12:18:47;;;;;;;2.67;0.90;;;;;;;;;;5054256;28;20199;-59
2021/12/02 12:21:12;;;;;;;2.20;0.70;;;;;;;;;;5054462;28;20257;-59
2021/12/02 12:23:40;;;;;;;1.27;0.50;;;;;;;;;;5055219;28;20241;-59
2021/12/02 12:26:19;;;;;;;0.93;0.60;;;;;;;;;;5036563;28;20305;-59
2021/12/02 12:29:03;;;;;;;1.03;0.70;;;;;;;;;;5037402;28;20218;-59
2021/12/02 12:31:28;;;;;;;2.08;0.60;;;;;;;;;;5059261;28;20280;-59
2021/12/02 12:33:53;;;;;;;1.20;0.60;;;;;;;;;;5062923;28;20662;-59
2021/12/02 12:36:34;;;;;;;1.23;0.60;;;;;;;;;;5054462;28;20215;-59
2021/12/02 12:39:16;;;;;;;4.78;1.70;;;;;;;;;;5054824;28;20207;-59
2021/12/02 12:41:42;;;;;;;33.70;14.15;;;;;;;;;;5036545;28;20222;-59
2021/12/02 12:44:07;;;;;;;11.75;5.20;;;;;;;;;;5054010;28;20210;-59
2021/12/02 12:46:32;;;;;;;6.80;3.67;;;;;;;;;;5053543;28;20670;-59
2021/12/02 12:49:13;;;;;;;4.47;2.23;;;;;;;;;;5061076;28;20296;-59
2021/12/02 12:51:39;;;;;;;6.13;4.00;;;;;;;;;;5063225;28;20622;-59
2021/12/02 12:54:05;;;;;;;3.10;1.42;;;;;;;;;;5035214;28;20215;-59
2021/12/02 12:56:31;;;;;;;2.13;1.10;;;;;;;;;;5054946;28;20234;-59
2021/12/02 12:58:58;;;;;;;1.92;0.90;;;;;;;;;;5054647;28;20207;-59
2021/12/02 13:01:25;;;;;;;1.33;0.98;;;;;;;;;;5053443;28;20215;-59
2021/12/02 13:04:04;;;;;;;2.30;1.53;;;;;;;;;;5049662;28;20238;-59
2021/12/02 13:06:33;;;;;;;2.03;0.93;;;;;;;;;;5054017;28;20573;-59
2021/12/02 13:09:01;;;;;;;1.60;1.10;;;;;;;;;;5053456;28;20234;-59
2021/12/02 13:11:29;;;;;;;3.00;0.90;;;;;;;;;;5056177;28;20219;-59
2021/12/02 13:13:55;;;;;;;2.33;0.80;;;;;;;;;;5071032;28;20207;-59
2021/12/02 13:16:21;;;;;;;1.02;0.50;;;;;;;;;;5035305;28;20619;-59
2021/12/02 13:18:47;;;;;;;2.75;0.85;;;;;;;;;;5053749;28;20206;-59
2021/12/02 13:21:20;;;;;;;2.70;0.70;;;;;;;;;;5039775;28;20226;-59
2021/12/02 13:23:53;;;;;;;3.28;0.98;;;;;;;;;;5066900;28;20209;-59
2021/12/02 13:26:18;;;;;;;2.80;0.93;;;;;;;;;;5052368;28;20674;-59
2021/12/02 13:28:44;;;;;;;3.03;0.52;;;;;;;;;;5051935;28;20226;-59
2021/12/02 13:31:11;;;;;;;3.43;0.97;;;;;;;;;;5053571;28;20207;-59
2021/12/02 13:33:38;;;;;;;1.80;0.70;;;;;;;;;;5052611;28;20219;-59
2021/12/02 13:36:04;;;;;;;2.13;1.00;;;;;;;;;;5052666;28;20199;-59
2021/12/02 13:38:30;;;;;;;1.67;0.80;;;;;;;;;;5053969;28;20214;-59
2021/12/02 13:40:55;;;;;;;3.17;0.65;;;;;;;;;;5058832;28;20233;-59
2021/12/02 13:43:20;;;;;;;1.88;0.80;;;;;;;;;;5072556;28;20213;-59
2021/12/02 13:45:46;;;;;;;4.75;1.85;;;;;;;;;;5073870;28;20207;-59
2021/12/02 13:48:18;;;;;;;4.32;1.00;;;;;;;;;;5060431;28;20310;-59
2021/12/02 13:50:47;;;;;;;2.20;0.97;;;;;;;;;;5052780;28;20215;-59
2021/12/02 13:53:13;;;;;;;3.75;1.30;;;;;;;;;;5052782;28;20618;-59
2021/12/02 13:55:40;;;;;;;2.60;1.00;;;;;;;;;;5048013;28;20220;-59
2021/12/02 14:00:38;;;;;;;3.65;0.80;;;;;;;;;;5073167;28;20214;-59
2021/12/02 14:03:11;;;;;;;5.35;0.95;;;;;;;;;;5039185;28;20253;-59
2021/12/02 14:05:37;;;;;;;2.78;0.77;;;;;;;;;;5056199;28;20206;-59
2021/12/02 14:08:03;;;;;;;1.98;0.65;;;;;;;;;;5056346;28;20322;-59
2021/12/02 14:10:29;;;;;;;2.30;0.70;;;;;;;;;;5060019;28;20345;-59
2021/12/02 14:12:57;;;;;;;3.67;0.57;;;;;;;;;;5063383;28;20281;-59
2021/12/02 14:15:23;;;;;;;1.98;0.60;;;;;;;;;;5064730;28;20217;-59
2021/12/02 14:17:49;;;;;;;2.15;0.70;;;;;;;;;;5064258;28;20221;-59
2021/12/02 14:20:14;;;;;;;1.45;0.68;;;;;;;;;;5064458;28;20207;-58
2021/12/02 14:22:40;;;;;;;1.77;0.80;;;;;;;;;;5064096;28;20222;-59
2021/12/02 14:25:07;;;;;;;2.03;0.70;;;;;;;;;;5044268;28;20214;-60
2021/12/02 14:27:32;;;;;;;3.30;0.90;;;;;;;;;;5057131;28;20610;-59
2021/12/02 14:30:05;;;;;;;3.03;1.08;;;;;;;;;;5056836;28;20830;-59
2021/12/02 14:32:31;;;;;;;2.60;1.00;;;;;;;;;;5056794;28;20557;-59
2021/12/02 14:35:04;;;;;;;2.40;0.70;;;;;;;;;;5062895;28;20673;-59
2021/12/02 14:37:30;;;;;;;2.50;0.75;;;;;;;;;;5045871;28;20291;-59
2021/12/02 14:39:55;;;;;;;3.75;0.80;;;;;;;;;;5063183;28;20245;-59
2021/12/02 14:42:21;;;;;;;2.30;0.98;;;;;;;;;;5045729;28;20623;-59
2021/12/02 14:44:46;;;;;;;2.10;1.02;;;;;;;;;;5064982;28;20215;-59
2021/12/02 14:47:11;;;;;;;4.87;1.00;;;;;;;;;;5063124;28;20222;-59
2021/12/02 14:49:39;;;;;;;1.73;0.77;;;;;;;;;;5038765;28;20207;-59
2021/12/02 14:52:09;;;;;;;3.50;1.60;;;;;;;;;;5054407;28;20292;-59
2021/12/02 14:54:35;;;;;;;3.67;1.77;;;;;;;;;;5037923;28;20570;-59
2021/12/02 14:57:01;;;;;;;5.80;1.80;;;;;;;;;;5063299;28;20685;-60